Time;durP1;ratioP1;P1;durP2;ratioP2;P2;SDS_P1;SDS_P2;PMS_P1;PMS_P2;Temp;Humidity;BMP_temperature;BMP_pressure;BME280_temperature;BME280_humidity;BME280_pressure;Samples;Min_cycle;Max_cycle;Signal;HPM_P1;HPM_P2
2022/01/11 00:01:30;;;;;;;15.10;9.50;;;19.50;47.30;;;;;;6223113;28;20038;-67
2022/01/11 00:04:31;;;;;;;16.88;10.63;;;19.50;47.30;;;;;;6220808;28;20041;-67
2022/01/11 00:07:33;;;;;;;16.42;10.20;;;19.50;47.30;;;;;;6220727;28;20030;-67
2022/01/11 00:10:46;;;;;;;16.60;10.15;;;19.50;47.40;;;;;;6220573;28;20041;-67
2022/01/11 00:13:46;;;;;;;15.43;9.95;;;19.50;47.30;;;;;;6221600;28;20487;-66
2022/01/11 00:16:47;;;;;;;18.42;9.80;;;19.50;47.30;;;;;;6221707;28;20057;-68
2022/01/11 00:19:49;;;;;;;16.40;10.30;;;19.50;47.30;;;;;;6221470;28;20062;-66
2022/01/11 00:25:59;;;;;;;17.27;9.77;;;19.50;47.30;;;;;;6221909;28;20017;-67
2022/01/11 00:29:00;;;;;;;15.50;9.80;;;19.50;47.40;;;;;;6221615;28;20025;-67
2022/01/11 00:32:06;;;;;;;15.60;10.07;;;19.50;47.40;;;;;;6220934;28;20045;-67
2022/01/11 00:35:10;;;;;;;16.33;10.35;;;19.40;47.30;;;;;;6220086;28;20029;-67
2022/01/11 00:38:18;;;;;;;16.67;10.63;;;19.40;47.30;;;;;;6220887;28;20405;-67
2022/01/11 00:41:18;;;;;;;16.23;10.25;;;19.40;47.30;;;;;;6221255;28;20595;-67
2022/01/11 00:44:19;;;;;;;17.73;10.75;;;19.40;47.30;;;;;;6220078;28;20030;-67
2022/01/11 00:47:20;;;;;;;16.15;10.00;;;19.40;47.30;;;;;;6221210;28;20030;-67
2022/01/11 00:50:21;;;;;;;16.02;10.43;;;19.40;47.30;;;;;;6221127;28;20022;-67
2022/01/11 00:53:22;;;;;;;17.35;10.27;;;19.40;47.30;;;;;;6221066;28;20402;-67
2022/01/11 00:56:23;;;;;;;16.20;9.93;;;19.40;47.30;;;;;;6219866;28;20037;-67
2022/01/11 00:59:24;;;;;;;15.82;9.73;;;19.40;47.30;;;;;;6220431;28;20025;-67
2022/01/11 01:02:24;;;;;;;17.52;10.80;;;19.40;47.30;;;;;;6219577;28;20025;-68
2022/01/11 01:05:25;;;;;;;14.63;9.70;;;19.40;47.30;;;;;;6211323;28;20018;-68
2022/01/11 01:08:25;;;;;;;15.95;10.15;;;19.40;47.30;;;;;;6196784;28;20030;-67
2022/01/11 01:11:26;;;;;;;21.30;10.75;;;19.40;47.30;;;;;;6196200;28;20046;-67
2022/01/11 01:14:27;;;;;;;15.27;9.68;;;19.40;47.30;;;;;;6195126;28;20069;-67
2022/01/11 01:17:27;;;;;;;17.92;10.70;;;19.40;47.30;;;;;;6195166;28;20026;-66
2022/01/11 01:20:28;;;;;;;15.85;10.25;;;19.40;47.30;;;;;;6194852;28;20027;-66
2022/01/11 01:23:29;;;;;;;16.15;10.45;;;19.40;47.20;;;;;;6196220;28;20030;-68
2022/01/11 01:26:31;;;;;;;17.13;10.60;;;19.40;47.30;;;;;;6195879;28;20025;-68
2022/01/11 01:29:32;;;;;;;18.08;10.52;;;19.40;47.40;;;;;;6195900;28;20376;-67
2022/01/11 01:32:33;;;;;;;16.40;11.25;;;19.40;47.30;;;;;;6202701;28;20026;-67
2022/01/11 01:35:39;;;;;;;18.15;10.95;;;19.40;47.30;;;;;;6220118;28;20030;-67
2022/01/11 01:38:40;;;;;;;17.38;10.88;;;19.40;47.30;;;;;;6220122;28;20076;-67
2022/01/11 01:41:44;;;;;;;16.00;10.18;;;19.40;47.30;;;;;;6220131;28;20025;-67
2022/01/11 01:44:47;;;;;;;18.00;11.23;;;19.40;47.30;;;;;;6220580;28;20108;-67
2022/01/11 01:47:52;;;;;;;17.73;10.90;;;19.40;47.30;;;;;;6218968;28;20105;-67
2022/01/11 01:50:53;;;;;;;18.83;10.70;;;19.40;47.30;;;;;;6218705;28;20022;-67
2022/01/11 01:53:55;;;;;;;16.65;10.85;;;19.40;47.20;;;;;;6218686;28;20079;-67
2022/01/11 01:56:55;;;;;;;17.45;10.77;;;19.40;47.30;;;;;;6218626;28;20036;-67
2022/01/11 01:59:56;;;;;;;17.75;11.30;;;19.40;47.30;;;;;;6219885;28;20387;-67
2022/01/11 02:03:05;;;;;;;18.80;11.45;;;19.40;47.30;;;;;;6219883;28;20109;-67
2022/01/11 02:06:08;;;;;;;17.67;11.25;;;19.40;47.30;;;;;;6219711;28;20101;-67
2022/01/11 02:09:11;;;;;;;19.95;11.05;;;19.40;47.30;;;;;;6218675;28;20034;-68
2022/01/11 02:12:12;;;;;;;17.15;11.48;;;19.40;47.30;;;;;;6223572;28;20029;-67
2022/01/11 02:15:12;;;;;;;17.08;10.40;;;19.40;47.30;;;;;;6224699;28;20096;-67
2022/01/11 02:18:16;;;;;;;17.85;11.30;;;19.40;47.50;;;;;;6245661;28;20076;-67
2022/01/11 02:21:17;;;;;;;17.85;10.68;;;19.40;47.30;;;;;;6246215;28;20033;-68
2022/01/11 02:24:18;;;;;;;18.77;11.35;;;19.40;47.30;;;;;;6245783;28;20545;-67
2022/01/11 02:27:19;;;;;;;19.35;11.63;;;19.40;47.30;;;;;;6245371;28;20037;-67
2022/01/11 02:30:20;;;;;;;17.58;11.18;;;19.40;47.30;;;;;;6246123;28;20069;-68
2022/01/11 02:33:41;;;;;;;18.15;11.10;;;19.40;47.30;;;;;;6245181;28;20119;-67
2022/01/11 02:36:42;;;;;;;16.75;11.23;;;19.40;47.30;;;;;;6245538;28;20041;-67
2022/01/11 02:39:45;;;;;;;17.08;10.85;;;19.40;47.30;;;;;;6245444;28;20088;-67
2022/01/11 02:42:46;;;;;;;16.88;11.10;;;19.40;47.30;;;;;;6245364;28;20518;-67
2022/01/11 02:45:46;;;;;;;17.90;11.55;;;19.40;47.30;;;;;;6245327;28;20030;-67
2022/01/11 02:48:52;;;;;;;17.80;11.25;;;19.40;47.30;;;;;;6235317;28;20049;-68
2022/01/11 02:51:53;;;;;;;19.23;11.13;;;19.40;47.30;;;;;;6224091;28;20029;-67
2022/01/11 02:54:54;;;;;;;17.95;11.32;;;19.40;47.30;;;;;;6222793;28;20053;-67
2022/01/11 02:57:55;;;;;;;17.60;11.23;;;19.40;47.30;;;;;;6223432;28;20030;-66
2022/01/11 03:00:56;;;;;;;18.48;11.52;;;19.40;47.30;;;;;;6224302;28;20029;-67
2022/01/11 03:03:57;;;;;;;17.95;10.95;;;19.40;47.30;;;;;;6222375;28;20364;-67
2022/01/11 03:06:57;;;;;;;18.65;11.77;;;19.40;47.30;;;;;;6223649;28;20107;-67
2022/01/11 03:13:04;;;;;;;17.00;10.93;;;19.40;47.30;;;;;;6223642;28;20052;-67
2022/01/11 03:16:05;;;;;;;16.90;11.23;;;19.30;47.30;;;;;;6223217;28;20093;-67
2022/01/11 03:19:06;;;;;;;16.85;10.65;;;19.40;47.40;;;;;;6220994;28;20034;-67
2022/01/11 03:22:06;;;;;;;16.40;11.35;;;19.40;47.40;;;;;;6222182;28;20104;-67
2022/01/11 03:25:07;;;;;;;19.08;11.30;;;19.30;47.30;;;;;;6222331;28;20152;-67
2022/01/11 03:28:08;;;;;;;17.73;11.13;;;19.30;47.30;;;;;;6220926;28;20558;-67
2022/01/11 03:31:09;;;;;;;15.70;10.77;;;19.30;47.30;;;;;;6222162;28;20091;-67
2022/01/11 03:34:17;;;;;;;16.05;10.98;;;19.30;47.30;;;;;;6221062;28;20132;-67
2022/01/11 03:37:20;;;;;;;18.05;10.75;;;19.30;47.30;;;;;;6222233;28;20530;-67
2022/01/11 03:40:23;;;;;;;18.48;11.65;;;19.30;47.30;;;;;;6222045;28;20026;-67
2022/01/11 03:43:25;;;;;;;17.92;11.38;;;19.30;47.30;;;;;;6222283;28;20093;-67
2022/01/11 03:46:27;;;;;;;18.00;12.52;;;19.30;47.30;;;;;;6220764;28;20018;-67
2022/01/11 03:49:27;;;;;;;20.15;12.25;;;19.30;47.30;;;;;;6221663;28;20449;-67
2022/01/11 03:52:28;;;;;;;16.67;11.15;;;19.30;47.30;;;;;;6222275;28;20030;-67
2022/01/11 03:55:45;;;;;;;18.45;11.25;;;19.30;47.30;;;;;;6222057;28;20495;-67
2022/01/11 03:58:45;;;;;;;18.83;11.35;;;19.30;47.30;;;;;;6221252;28;20049;-67
2022/01/11 04:01:47;;;;;;;18.42;11.38;;;19.30;47.30;;;;;;6221544;28;20535;-67
2022/01/11 04:04:52;;;;;;;17.73;11.35;;;19.30;47.40;;;;;;6221578;28;20022;-67
2022/01/11 04:07:53;;;;;;;18.58;11.52;;;19.30;47.40;;;;;;6221598;28;20045;-67
2022/01/11 04:10:53;;;;;;;19.73;11.63;;;19.30;47.30;;;;;;6221319;28;20022;-67
2022/01/11 04:13:54;;;;;;;18.25;10.95;;;19.30;47.30;;;;;;6221422;28;20026;-67
2022/01/11 04:16:55;;;;;;;16.80;10.95;;;19.30;47.30;;;;;;6221757;28;20026;-67
2022/01/11 04:19:55;;;;;;;17.55;11.15;;;19.30;47.30;;;;;;6220467;28;20037;-67
2022/01/11 04:22:56;;;;;;;18.58;11.35;;;19.30;47.30;;;;;;6221694;28;20026;-67
2022/01/11 04:25:56;;;;;;;17.90;11.63;;;19.30;47.30;;;;;;6220879;28;20215;-67
2022/01/11 04:28:57;;;;;;;17.95;11.50;;;19.30;47.30;;;;;;6220814;28;20026;-67
2022/01/11 04:31:57;;;;;;;16.38;10.38;;;19.30;47.30;;;;;;6219471;28;20395;-67
2022/01/11 04:34:58;;;;;;;17.02;10.80;;;19.30;47.30;;;;;;6220771;28;20487;-67
2022/01/11 04:37:59;;;;;;;17.65;11.48;;;19.30;47.30;;;;;;6220175;28;20030;-68
2022/01/11 04:41:00;;;;;;;18.00;11.30;;;19.30;47.30;;;;;;6220552;28;20038;-67
2022/01/11 04:44:00;;;;;;;17.42;11.27;;;19.30;47.30;;;;;;6220271;28;20057;-67
2022/01/11 04:47:01;;;;;;;19.08;11.30;;;19.30;47.40;;;;;;6220538;28;20399;-67
2022/01/11 04:50:03;;;;;;;16.55;11.48;;;19.30;47.30;;;;;;6218681;28;20037;-67
2022/01/11 04:53:04;;;;;;;18.45;11.43;;;19.30;47.40;;;;;;6206657;28;20038;-67
2022/01/11 04:56:06;;;;;;;16.63;10.73;;;19.30;47.40;;;;;;6196045;28;20031;-67
2022/01/11 04:59:07;;;;;;;16.58;10.95;;;19.30;47.40;;;;;;6195932;28;20427;-67
2022/01/11 05:02:07;;;;;;;15.93;10.73;;;19.30;47.40;;;;;;6218707;28;20113;-67
2022/01/11 05:05:08;;;;;;;18.10;10.88;;;19.30;47.40;;;;;;6220053;28;20022;-67
2022/01/11 05:08:09;;;;;;;14.60;10.38;;;19.30;47.40;;;;;;6219679;28;20377;-67
2022/01/11 05:11:09;;;;;;;15.52;10.35;;;19.30;47.40;;;;;;6218688;28;20030;-67
2022/01/11 05:14:10;;;;;;;17.70;11.48;;;19.30;47.40;;;;;;6219772;28;20045;-68
2022/01/11 05:17:10;;;;;;;14.68;10.02;;;19.30;47.40;;;;;;6220113;28;20037;-67
2022/01/11 05:20:13;;;;;;;16.80;11.10;;;19.30;47.30;;;;;;6219567;28;20519;-67
2022/01/11 05:23:14;;;;;;;15.77;10.35;;;19.30;47.30;;;;;;6219009;28;20018;-67
2022/01/11 05:26:15;;;;;;;15.43;10.35;;;19.30;47.30;;;;;;6218970;28;20434;-67
2022/01/11 05:29:15;;;;;;;16.40;10.48;;;19.40;47.30;;;;;;6219608;28;20038;-67
2022/01/11 05:32:16;;;;;;;15.77;10.05;;;19.40;47.20;;;;;;6217915;28;20030;-67
2022/01/11 05:35:18;;;;;;;15.13;10.48;;;19.40;47.30;;;;;;6219774;28;20135;-67
2022/01/11 05:38:19;;;;;;;15.70;10.02;;;19.40;47.30;;;;;;6217801;28;20030;-67
2022/01/11 05:41:20;;;;;;;16.25;10.23;;;19.40;47.20;;;;;;6219610;28;20026;-67
2022/01/11 05:44:21;;;;;;;14.00;10.05;;;19.40;47.20;;;;;;6219650;28;20036;-67
2022/01/11 05:47:22;;;;;;;14.27;9.60;;;19.40;47.20;;;;;;6219694;28;20018;-67
2022/01/11 05:50:23;;;;;;;16.23;10.25;;;19.40;47.20;;;;;;6217752;28;20414;-67
2022/01/11 05:53:23;;;;;;;17.73;10.80;;;19.40;47.20;;;;;;6219098;28;20041;-67
2022/01/11 05:56:24;;;;;;;15.80;10.50;;;19.40;47.20;;;;;;6219213;28;20100;-67
2022/01/11 05:59:25;;;;;;;13.07;9.43;;;19.40;47.20;;;;;;6219188;28;20105;-67
2022/01/11 06:02:25;;;;;;;14.77;9.50;;;19.40;47.20;;;;;;6204816;28;20443;-67
2022/01/11 06:05:26;;;;;;;15.13;10.00;;;19.40;47.10;;;;;;6194540;28;20068;-68
2022/01/11 06:08:27;;;;;;;15.45;9.95;;;19.40;47.10;;;;;;6194591;28;20157;-67
2022/01/11 06:11:27;;;;;;;13.85;9.20;;;19.40;47.10;;;;;;6194548;28;20098;-67
2022/01/11 06:14:28;;;;;;;13.68;9.40;;;19.40;47.20;;;;;;6194871;28;20072;-67
2022/01/11 06:17:29;;;;;;;15.63;9.73;;;19.40;47.10;;;;;;6194545;28;20065;-67
2022/01/11 06:20:29;;;;;;;14.13;9.73;;;19.40;47.20;;;;;;6194348;28;20035;-67
2022/01/11 06:23:30;;;;;;;15.00;9.93;;;19.40;47.20;;;;;;6198881;28;20029;-67
2022/01/11 06:26:30;;;;;;;14.40;9.65;;;19.40;47.20;;;;;;6218904;28;20084;-67
2022/01/11 06:29:31;;;;;;;13.80;9.55;;;19.40;47.30;;;;;;6218694;28;20072;-67
2022/01/11 06:32:32;;;;;;;13.55;9.20;;;19.40;47.30;;;;;;6218508;28;20042;-67
2022/01/11 06:35:32;;;;;;;15.27;9.82;;;19.40;47.30;;;;;;6218769;28;20030;-67
2022/01/11 06:38:33;;;;;;;15.20;9.25;;;19.40;47.30;;;;;;6218684;28;20045;-67
2022/01/11 06:41:35;;;;;;;12.60;8.77;;;19.40;47.40;;;;;;6218959;28;20239;-68
2022/01/11 06:44:37;;;;;;;16.15;9.52;;;19.40;47.40;;;;;;6218946;28;20025;-67
2022/01/11 06:47:39;;;;;;;14.50;9.57;;;19.40;47.40;;;;;;6218456;28;20383;-67
2022/01/11 06:50:39;;;;;;;14.02;9.13;;;19.40;47.50;;;;;;6218675;28;20395;-67
2022/01/11 06:53:40;;;;;;;16.17;9.90;;;19.40;47.50;;;;;;6218828;28;20057;-67
2022/01/11 06:56:40;;;;;;;15.07;9.52;;;19.40;47.50;;;;;;6221287;28;20053;-67
2022/01/11 06:59:41;;;;;;;14.40;9.38;;;19.40;47.50;;;;;;6219726;28;20022;-67
2022/01/11 07:02:42;;;;;;;14.93;9.85;;;19.40;47.50;;;;;;6217683;28;20026;-67
2022/01/11 07:05:43;;;;;;;13.63;9.27;;;19.40;47.70;;;;;;6215522;28;20029;-67
2022/01/11 07:08:43;;;;;;;14.07;9.77;;;19.50;47.60;;;;;;6202514;28;20434;-69
2022/01/11 07:11:44;;;;;;;13.07;8.75;;;19.50;47.60;;;;;;6204422;28;20077;-69
2022/01/11 07:14:44;;;;;;;15.07;9.90;;;19.40;47.50;;;;;;6212669;28;20041;-69
2022/01/11 07:17:45;;;;;;;14.98;9.75;;;19.50;47.60;;;;;;6211752;28;20034;-69
2022/01/11 07:20:46;;;;;;;13.93;9.13;;;19.50;47.60;;;;;;6231328;28;20034;-69
2022/01/11 07:23:48;;;;;;;15.90;9.23;;;19.50;47.50;;;;;;6242198;28;20477;-69
2022/01/11 07:26:48;;;;;;;14.25;9.32;;;19.50;47.50;;;;;;6204093;28;20034;-69
2022/01/11 07:29:49;;;;;;;13.05;9.10;;;19.50;47.60;;;;;;6209560;28;20578;-69
2022/01/11 07:32:50;;;;;;;16.58;9.48;;;19.50;47.60;;;;;;6223627;28;20037;-69
2022/01/11 07:35:50;;;;;;;16.70;10.15;;;19.50;48.30;;;;;;6213601;28;20546;-68
2022/01/11 07:38:51;;;;;;;15.57;9.57;;;19.50;47.60;;;;;;6223551;28;20435;-69
2022/01/11 07:41:51;;;;;;;16.60;9.50;;;19.50;47.60;;;;;;6223458;28;20030;-69
2022/01/11 07:44:54;;;;;;;14.30;9.30;;;19.50;47.60;;;;;;6223782;28;20053;-69
2022/01/11 07:47:54;;;;;;;14.60;8.93;;;19.50;47.60;;;;;;6222300;28;20545;-69
2022/01/11 07:50:56;;;;;;;17.40;10.35;;;19.50;47.60;;;;;;6221911;28;20022;-69
2022/01/11 07:53:56;;;;;;;15.30;9.88;;;19.50;47.60;;;;;;6217247;28;20365;-69
2022/01/11 07:56:57;;;;;;;13.73;8.95;;;19.50;47.60;;;;;;6222447;28;20026;-69
2022/01/11 07:59:57;;;;;;;13.77;9.50;;;19.50;47.70;;;;;;6222870;28;20117;-69
2022/01/11 08:02:58;;;;;;;13.13;8.32;;;19.50;47.70;;;;;;6223211;28;20022;-69
2022/01/11 08:05:58;;;;;;;16.05;9.88;;;19.50;47.70;;;;;;6210910;28;20025;-69
2022/01/11 08:09:00;;;;;;;12.02;8.90;;;19.50;47.60;;;;;;6196543;28;20034;-69
2022/01/11 08:12:01;;;;;;;13.18;8.77;;;19.50;47.70;;;;;;6197529;28;20092;-69
2022/01/11 08:15:04;;;;;;;13.88;9.13;;;19.50;47.70;;;;;;6198403;28;20511;-68
2022/01/11 08:18:05;;;;;;;14.30;9.52;;;19.50;47.70;;;;;;6208770;28;20369;-68
2022/01/11 08:21:06;;;;;;;15.15;9.35;;;19.50;47.70;;;;;;6198700;28;20030;-68
2022/01/11 08:24:07;;;;;;;17.55;9.70;;;19.50;47.70;;;;;;6207488;28;20033;-68
2022/01/11 08:27:08;;;;;;;16.00;9.75;;;19.50;47.70;;;;;;6222328;28;20041;-69
2022/01/11 08:30:10;;;;;;;11.70;7.93;;;19.50;47.70;;;;;;6221959;28;20054;-69
2022/01/11 08:33:12;;;;;;;14.15;8.85;;;19.50;47.70;;;;;;6212944;28;20031;-69
2022/01/11 08:36:13;;;;;;;13.18;8.80;;;19.50;47.80;;;;;;6221261;28;20025;-69
2022/01/11 08:39:14;;;;;;;13.75;8.60;;;19.50;47.80;;;;;;6222130;28;20022;-69
2022/01/11 08:42:15;;;;;;;14.27;9.13;;;19.50;47.80;;;;;;6222220;28;20026;-69
2022/01/11 08:45:16;;;;;;;13.10;8.55;;;19.50;47.80;;;;;;6222404;28;20022;-69
2022/01/11 08:48:17;;;;;;;14.60;9.10;;;19.50;47.80;;;;;;6222165;28;20032;-69
2022/01/11 08:51:18;;;;;;;13.38;8.88;;;19.50;47.80;;;;;;6202544;28;20058;-69
2022/01/11 08:54:21;;;;;;;12.85;8.23;;;19.50;47.80;;;;;;6221609;28;20026;-69
2022/01/11 08:57:22;;;;;;;11.95;8.25;;;19.50;47.80;;;;;;6221931;28;20022;-69
2022/01/11 09:00:23;;;;;;;13.82;9.13;;;19.50;47.80;;;;;;6220243;28;20022;-69
2022/01/11 09:03:24;;;;;;;14.57;8.85;;;19.50;47.80;;;;;;6221936;28;20040;-69
2022/01/11 09:06:25;;;;;;;12.50;8.18;;;19.50;47.80;;;;;;6204822;28;20022;-69
2022/01/11 09:09:28;;;;;;;11.15;8.02;;;19.50;47.80;;;;;;6197475;28;20145;-69
2022/01/11 09:12:29;;;;;;;12.88;8.40;;;19.50;48.50;;;;;;6196039;28;20034;-69
2022/01/11 09:15:29;;;;;;;13.73;8.50;;;19.50;47.80;;;;;;6200990;28;20049;-69
2022/01/11 09:18:31;;;;;;;13.30;8.65;;;19.50;47.80;;;;;;6211797;28;20026;-69
2022/01/11 09:21:33;;;;;;;14.70;9.20;;;19.50;47.80;;;;;;6198582;28;20023;-69
2022/01/11 09:24:36;;;;;;;12.75;8.52;;;19.50;47.80;;;;;;6222248;28;20025;-69
2022/01/11 09:27:37;;;;;;;12.48;8.52;;;19.50;47.80;;;;;;6201788;28;20018;-69
2022/01/11 09:30:38;;;;;;;12.82;8.55;;;19.50;47.80;;;;;;6231577;28;20025;-69
2022/01/11 09:33:39;;;;;;;13.02;8.70;;;19.50;47.80;;;;;;6226483;28;20033;-69
2022/01/11 09:36:40;;;;;;;16.23;8.70;;;19.50;47.80;;;;;;6233989;28;20029;-69
2022/01/11 09:39:43;;;;;;;12.70;8.73;;;19.50;47.80;;;;;;6237116;28;20412;-69
2022/01/11 09:42:44;;;;;;;12.55;8.15;;;19.50;47.80;;;;;;6226359;28;20028;-69
2022/01/11 09:45:45;;;;;;;12.30;8.63;;;19.50;47.70;;;;;;6221232;28;20022;-69
2022/01/11 09:48:48;;;;;;;12.30;8.13;;;19.50;47.70;;;;;;6220919;28;20026;-69
2022/01/11 09:51:50;;;;;;;10.45;7.35;;;19.50;47.70;;;;;;6216475;28;20030;-69
2022/01/11 09:54:50;;;;;;;13.23;8.57;;;19.60;47.80;;;;;;6199922;28;20030;-69
2022/01/11 09:57:51;;;;;;;13.68;8.13;;;19.60;47.80;;;;;;6221276;28;20160;-69
2022/01/11 10:00:53;;;;;;;16.70;8.73;;;19.60;47.50;;;;;;6220778;28;20037;-71
2022/01/11 10:04:06;;;;;;;12.63;8.32;;;19.70;47.50;;;;;;6221150;28;20033;-71
2022/01/11 10:07:09;;;;;;;12.45;7.95;;;19.70;47.50;;;;;;6221331;28;20104;-69
2022/01/11 10:10:21;;;;;;;40.28;13.75;;;19.80;47.60;;;;;;6222128;28;20030;-68
2022/01/11 10:13:29;;;;;;;14.05;8.23;;;19.80;47.90;;;;;;6222418;28;20159;-69
2022/01/11 10:16:30;;;;;;;23.50;9.43;;;19.80;47.70;;;;;;6228690;28;20048;-70
2022/01/11 10:19:31;;;;;;;23.65;9.68;;;19.90;47.80;;;;;;6246792;28;20026;-70
2022/01/11 10:22:32;;;;;;;22.63;8.88;;;19.90;47.80;;;;;;6240322;28;20034;-71
2022/01/11 10:25:43;;;;;;;14.02;8.00;;;19.90;47.60;;;;;;6221749;28;20026;-70
2022/01/11 10:28:44;;;;;;;18.27;7.95;;;19.90;47.40;;;;;;6221823;28;20080;-71
2022/01/11 10:31:45;;;;;;;12.55;8.00;;;19.90;47.60;;;;;;6224422;28;20034;-70
2022/01/11 10:34:49;;;;;;;14.07;8.82;;;19.90;47.40;;;;;;6241797;28;20025;-70
2022/01/11 10:37:56;;;;;;;13.23;8.50;;;19.90;47.40;;;;;;6226722;28;20026;-69
2022/01/11 10:40:57;;;;;;;14.73;7.82;;;19.90;47.50;;;;;;6224600;28;20026;-70
2022/01/11 10:43:57;;;;;;;20.20;7.72;;;19.90;47.50;;;;;;6241414;28;20022;-70
2022/01/11 10:46:58;;;;;;;14.70;8.35;;;19.90;47.50;;;;;;6226685;28;20030;-70
2022/01/11 10:50:10;;;;;;;14.30;7.82;;;19.90;47.50;;;;;;6224838;28;20030;-70
2022/01/11 10:53:14;;;;;;;15.00;8.02;;;19.90;47.60;;;;;;6226042;28;20037;-70
2022/01/11 10:56:16;;;;;;;17.52;8.48;;;19.90;47.60;;;;;;6226166;28;20018;-70
2022/01/11 10:59:16;;;;;;;15.43;8.65;;;19.90;47.70;;;;;;6226055;28;20022;-70
2022/01/11 11:02:27;;;;;;;15.38;8.07;;;19.80;47.70;;;;;;6225794;28;20033;-70
2022/01/11 11:05:50;;;;;;;13.63;7.97;;;19.80;47.70;;;;;;6207036;28;20020;-70
2022/01/11 11:08:50;;;;;;;15.52;8.75;;;19.80;47.70;;;;;;6201778;28;20022;-70
2022/01/11 11:12:14;;;;;;;15.25;8.25;;;19.80;47.70;;;;;;6200792;28;20248;-71
2022/01/11 11:15:16;;;;;;;15.05;7.93;;;19.80;47.60;;;;;;6201209;28;20050;-70
2022/01/11 11:18:37;;;;;;;16.30;9.02;;;19.80;47.70;;;;;;6221475;28;20112;-70
2022/01/11 11:21:38;;;;;;;22.35;12.52;;;19.80;47.40;;;;;;6225532;28;20065;-68
2022/01/11 11:24:39;;;;;;;24.80;13.18;;;19.70;46.00;;;;;;6227330;28;20022;-70
2022/01/11 11:27:40;;;;;;;21.75;12.80;;;19.70;45.40;;;;;;6212475;28;20053;-69
2022/01/11 11:30:41;;;;;;;23.63;13.68;;;19.70;44.10;;;;;;6223398;28;20022;-70
2022/01/11 11:33:42;;;;;;;19.90;12.90;;;19.70;43.80;;;;;;6215694;28;20081;-70
2022/01/11 11:36:44;;;;;;;18.83;11.15;;;19.70;44.40;;;;;;6201372;28;20031;-69
2022/01/11 11:39:45;;;;;;;15.80;11.05;;;19.70;45.60;;;;;;6199221;28;20085;-70
2022/01/11 11:42:50;;;;;;;16.08;10.57;;;19.70;45.10;;;;;;6200597;28;20383;-69
2022/01/11 11:45:50;;;;;;;18.42;11.25;;;19.70;45.20;;;;;;6201573;28;20108;-69
2022/01/11 11:48:55;;;;;;;17.30;11.32;;;19.70;45.40;;;;;;6200233;28;20381;-70
2022/01/11 11:52:03;;;;;;;18.25;11.18;;;19.70;45.40;;;;;;6199514;28;20027;-70
2022/01/11 11:55:23;;;;;;;16.00;10.40;;;19.70;45.60;;;;;;6200236;28;20044;-69
2022/01/11 11:58:26;;;;;;;17.85;11.05;;;19.70;45.70;;;;;;6198144;28;20487;-68
2022/01/11 12:01:41;;;;;;;20.20;11.90;;;19.70;45.90;;;;;;6199622;28;20022;-69
2022/01/11 12:04:52;;;;;;;17.40;10.75;;;19.70;46.00;;;;;;6198375;28;20038;-69
2022/01/11 12:07:53;;;;;;;19.83;10.68;;;19.70;46.10;;;;;;6199350;28;20034;-69
2022/01/11 12:10:56;;;;;;;17.02;10.70;;;19.70;46.20;;;;;;6199450;28;20038;-69
2022/01/11 12:13:57;;;;;;;15.23;9.98;;;19.70;46.30;;;;;;6197952;28;20046;-69
2022/01/11 12:17:25;;;;;;;17.55;10.40;;;19.70;46.30;;;;;;6229088;28;20483;-69
2022/01/11 12:20:43;;;;;;;16.50;11.05;;;19.70;46.30;;;;;;6220619;28;20052;-69
2022/01/11 12:23:44;;;;;;;15.07;10.18;;;19.70;46.30;;;;;;6223341;28;20388;-69
2022/01/11 12:26:57;;;;;;;17.13;10.32;;;19.70;46.50;;;;;;6221996;28;20029;-69
2022/01/11 12:30:04;;;;;;;17.38;10.18;;;19.60;46.40;;;;;;6222920;28;20823;-69
2022/01/11 12:33:07;;;;;;;17.40;10.20;;;19.70;46.50;;;;;;6213648;28;20034;-69
2022/01/11 12:36:07;;;;;;;16.77;10.48;;;19.60;46.50;;;;;;6197578;28;20022;-69
2022/01/11 12:39:08;;;;;;;14.68;9.90;;;19.60;46.50;;;;;;6198488;28;20089;-69
2022/01/11 12:42:26;;;;;;;15.00;9.32;;;19.60;46.60;;;;;;6198915;28;20037;-69
2022/01/11 12:45:54;;;;;;;15.88;9.90;;;19.60;46.50;;;;;;6198275;28;20108;-68
2022/01/11 12:49:00;;;;;;;12.90;8.77;;;19.60;46.50;;;;;;6197201;28;20030;-69
2022/01/11 12:55:11;;;;;;;13.63;9.10;;;19.60;46.60;;;;;;6198107;28;20489;-69
2022/01/11 12:58:12;;;;;;;15.60;9.93;;;19.60;46.60;;;;;;6198094;28;20034;-69
2022/01/11 13:01:17;;;;;;;15.50;9.48;;;19.60;46.60;;;;;;6213480;28;20026;-69
2022/01/11 13:04:17;;;;;;;16.30;9.80;;;19.60;46.60;;;;;;6223030;28;20025;-71
2022/01/11 13:07:24;;;;;;;14.68;9.35;;;19.70;46.60;;;;;;6222558;28;20663;-69
2022/01/11 13:10:26;;;;;;;13.77;9.25;;;19.60;46.60;;;;;;6222404;28;20022;-69
2022/01/11 13:13:27;;;;;;;13.55;8.75;;;19.60;46.70;;;;;;6222830;28;20030;-69
2022/01/11 13:16:27;;;;;;;13.63;9.20;;;19.60;46.70;;;;;;6222283;28;20049;-69
2022/01/11 13:19:42;;;;;;;13.23;8.93;;;19.60;46.70;;;;;;6222312;28;20100;-69
2022/01/11 13:23:08;;;;;;;13.70;9.17;;;19.60;46.70;;;;;;6221857;28;20026;-69
2022/01/11 13:26:14;;;;;;;14.75;8.85;;;19.60;46.80;;;;;;6221981;28;20081;-69
2022/01/11 13:29:20;;;;;;;13.63;9.00;;;19.60;46.70;;;;;;6220420;28;20097;-69
2022/01/11 13:32:24;;;;;;;12.40;8.43;;;19.60;46.80;;;;;;6220346;28;20395;-69
2022/01/11 13:35:25;;;;;;;16.38;8.80;;;19.60;46.80;;;;;;6222825;28;20040;-69
2022/01/11 13:38:28;;;;;;;14.38;8.77;;;19.60;46.80;;;;;;6220386;28;20451;-68
2022/01/11 13:41:37;;;;;;;13.32;8.98;;;19.60;46.80;;;;;;6222073;28;20237;-69
2022/01/11 13:44:43;;;;;;;13.10;8.65;;;19.60;46.80;;;;;;6220584;28;20113;-70
2022/01/11 13:47:43;;;;;;;13.68;8.45;;;19.60;46.70;;;;;;6221572;28;20053;-69
2022/01/11 13:50:58;;;;;;;12.70;8.27;;;19.60;46.90;;;;;;6221810;28;20052;-69
2022/01/11 13:54:04;;;;;;;12.00;8.13;;;19.60;46.70;;;;;;6221506;28;20029;-69
2022/01/11 13:57:17;;;;;;;12.82;8.75;;;19.60;46.70;;;;;;6220120;28;20030;-69
2022/01/11 14:00:17;;;;;;;14.23;8.95;;;19.60;46.80;;;;;;6209780;28;20029;-69
2022/01/11 14:03:19;;;;;;;12.80;8.57;;;19.60;46.70;;;;;;6195537;28;20062;-69
2022/01/11 14:06:23;;;;;;;13.25;8.75;;;19.60;46.90;;;;;;6231683;28;20406;-69
2022/01/11 14:09:37;;;;;;;12.15;8.23;;;19.60;46.80;;;;;;6219367;28;20030;-69
2022/01/11 14:12:47;;;;;;;13.75;7.97;;;19.60;46.70;;;;;;6230154;28;20025;-69
2022/01/11 14:15:47;;;;;;;12.40;8.15;;;19.60;46.90;;;;;;6242807;28;20091;-69
2022/01/11 14:19:08;;;;;;;10.77;8.27;;;19.60;46.90;;;;;;6243628;28;20034;-69
2022/01/11 14:22:09;;;;;;;14.48;8.23;;;19.60;47.00;;;;;;6219141;28;20034;-69
2022/01/11 14:25:18;;;;;;;12.55;8.75;;;19.60;47.00;;;;;;6215549;28;20352;-69
2022/01/11 14:28:28;;;;;;;12.30;8.30;;;19.60;47.00;;;;;;6218331;28;20022;-69
2022/01/11 14:31:32;;;;;;;12.77;8.65;;;19.60;47.10;;;;;;6218090;28;20026;-69
2022/01/11 14:34:33;;;;;;;11.82;8.13;;;19.60;47.10;;;;;;6219312;28;20173;-69
2022/01/11 14:37:35;;;;;;;13.95;8.68;;;19.60;47.10;;;;;;6219024;28;20331;-68
2022/01/11 14:40:40;;;;;;;11.23;7.68;;;19.70;47.30;;;;;;6217772;28;20026;-69
2022/01/11 14:44:01;;;;;;;11.77;8.25;;;19.60;47.20;;;;;;6218369;28;20018;-69
2022/01/11 14:47:05;;;;;;;12.30;8.65;;;19.60;47.30;;;;;;6232247;28;20026;-69
2022/01/11 14:50:11;;;;;;;10.30;7.45;;;19.60;48.00;;;;;;6242348;28;20706;-69
2022/01/11 14:53:12;;;;;;;12.90;8.32;;;19.60;47.40;;;;;;6207533;28;20662;-70
2022/01/11 14:56:23;;;;;;;11.43;7.78;;;19.60;47.50;;;;;;6218417;28;20026;-69
2022/01/11 14:59:26;;;;;;;14.60;9.57;;;19.60;47.50;;;;;;6234053;28;20082;-69
2022/01/11 15:02:28;;;;;;;14.90;9.88;;;19.60;46.90;;;;;;6234431;28;20053;-69
2022/01/11 15:05:29;;;;;;;15.80;9.23;;;19.60;46.50;;;;;;6232013;28;20150;-69
2022/01/11 15:08:31;;;;;;;15.02;9.50;;;19.60;46.80;;;;;;6218093;28;20018;-69
2022/01/11 15:11:41;;;;;;;14.50;9.63;;;19.60;46.90;;;;;;6219081;28;20022;-69
2022/01/11 15:14:42;;;;;;;12.63;8.85;;;19.60;47.00;;;;;;6248304;28;20438;-69
2022/01/11 15:17:43;;;;;;;14.05;9.35;;;19.60;47.10;;;;;;6246169;28;20025;-69
2022/01/11 15:20:43;;;;;;;15.57;9.15;;;19.60;47.10;;;;;;6245802;28;20601;-71
2022/01/11 15:23:45;;;;;;;14.77;9.40;;;19.60;47.20;;;;;;6223172;28;20026;-71
2022/01/11 15:26:47;;;;;;;13.40;8.77;;;19.60;47.20;;;;;;6234848;28;20025;-70
2022/01/11 15:29:48;;;;;;;14.18;8.70;;;19.60;47.20;;;;;;6246372;28;20032;-70
2022/01/11 15:32:49;;;;;;;14.30;8.40;;;19.60;47.30;;;;;;6238208;28;20030;-70
2022/01/11 15:35:57;;;;;;;12.85;8.50;;;19.60;47.20;;;;;;6221848;28;20029;-70
2022/01/11 15:38:57;;;;;;;14.25;8.93;;;19.60;47.30;;;;;;6221019;28;20030;-69
2022/01/11 15:41:58;;;;;;;12.77;8.73;;;19.60;47.30;;;;;;6223404;28;20069;-70
2022/01/11 15:44:59;;;;;;;14.15;9.52;;;19.60;47.40;;;;;;6221856;28;20026;-70